Briton Ferry, United Kingdom
Current Conditions -  °F | °C
As of 9:50 AM on Friday 21 Nov 2014 (Local Time) from EGDX Reporting Station
Moderate Rain Moderate Rain  
Wind Chill: 40°   Ceiling: 800
Heat Index: 46°   Visibility: 2.1mi
Dew Point: 45°   Wind: 15mph
Humidity: 93%   Direction: 90°E
Pressure: 30"   Gusts: NA
Location:  51.63°N, 3.82°W
Report Text: EGDX 210950Z 09013KT 3500 RA OVC008 08/07 Q1016 YLO1
Loading
Personal Weather Stations






























Interactive Weather Map New forecast layout! Learn more

10-Day Weather Forecast

Advertisements
Track Severe Weather on mobile